Time;durP1;ratioP1;P1;durP2;ratioP2;P2;SDS_P1;SDS_P2;PMS_P1;PMS_P2;Temp;Humidity;BMP_temperature;BMP_pressure;BME280_temperature;BME280_humidity;BME280_pressure;Samples;Min_cycle;Max_cycle;Signal;HPM_P1;HPM_P2
2022/04/09 00:00:09;;;;;;;0.85;0.60;;;;;;;2.12;64.95;99532.91;5062496;28;19929;-39
2022/04/09 00:02:42;;;;;;;1.23;0.77;;;;;;;2.11;64.69;99531.19;5059389;28;20045;-40
2022/04/09 00:05:12;;;;;;;1.67;1.05;;;;;;;2.10;64.30;99544.81;5064010;28;20052;-41
2022/04/09 00:07:42;;;;;;;1.42;0.88;;;;;;;2.05;64.02;99542.13;5064871;28;20142;-38
2022/04/09 00:10:14;;;;;;;1.60;0.75;;;;;;;2.07;64.79;99547.28;5060393;28;20126;-40
2022/04/09 00:12:46;;;;;;;1.13;0.55;;;;;;;2.02;64.25;99550.59;5060716;28;20683;-40
2022/04/09 00:15:16;;;;;;;3.67;0.68;;;;;;;2.00;65.42;99549.72;5053386;28;20106;-39
2022/04/09 00:18:00;;;;;;;2.67;0.73;;;;;;;1.97;64.61;99554.75;5066448;28;20115;-41
2022/04/09 00:20:28;;;;;;;2.20;0.77;;;;;;;1.97;64.68;99558.97;5041821;28;20045;-37
2022/04/09 00:22:56;;;;;;;2.13;1.30;;;;;;;1.96;66.10;99562.34;5062777;28;20045;-42
2022/04/09 00:25:26;;;;;;;3.85;0.80;;;;;;;1.96;65.33;99565.75;5063807;28;20053;-39
2022/04/09 00:27:53;;;;;;;2.42;1.25;;;;;;;1.92;66.02;99561.41;5051798;28;20741;-39
2022/04/09 00:30:21;;;;;;;3.75;0.60;;;;;;;1.92;66.38;99566.50;5055985;28;20052;-40
2022/04/09 00:32:48;;;;;;;1.35;0.60;;;;;;;1.91;65.35;99560.56;5056944;28;20048;-40
2022/04/09 00:35:15;;;;;;;2.08;0.75;;;;;;;1.90;64.91;99568.19;5069791;28;20060;-38
2022/04/09 00:37:45;;;;;;;2.45;0.80;;;;;;;1.89;65.72;99572.41;5045128;28;20412;-38
2022/04/09 00:40:18;;;;;;;1.05;0.50;;;;;;;1.88;65.87;99572.38;5037833;28;20045;-39
2022/04/09 00:42:46;;;;;;;1.35;1.08;;;;;;;1.86;65.71;99571.47;5046796;28;20049;-39
2022/04/09 00:45:15;;;;;;;2.60;0.55;;;;;;;1.84;65.76;99573.13;5046435;28;20049;-39
2022/04/09 00:48:00;;;;;;;3.65;1.20;;;;;;;1.83;65.13;99579.94;5047275;28;20048;-37
2022/04/09 00:50:27;;;;;;;1.40;0.85;;;;;;;1.82;64.90;99579.91;5045969;28;20041;-40
2022/04/09 00:52:58;;;;;;;3.53;0.82;;;;;;;1.80;64.63;99583.25;5044705;28;20049;-40
2022/04/09 00:58:14;;;;;;;1.20;0.40;;;;;;;1.74;63.41;99588.22;5047651;28;20109;-41
2022/04/09 01:00:44;;;;;;;3.95;0.80;;;;;;;1.72;63.68;99594.97;5064291;28;20049;-40
2022/04/09 01:03:19;;;;;;;1.60;0.85;;;;;;;1.70;64.62;99596.63;5056190;28;20045;-39
2022/04/09 01:05:48;;;;;;;2.45;0.82;;;;;;;1.67;63.98;99596.53;5046131;28;20053;-38
2022/04/09 01:08:15;;;;;;;1.70;0.70;;;;;;;1.65;63.51;99600.72;5050369;28;20045;-38
2022/04/09 01:10:47;;;;;;;2.35;1.17;;;;;;;1.62;63.20;99603.22;5069193;28;20133;-38
2022/04/09 01:13:14;;;;;;;1.95;0.98;;;;;;;1.59;63.45;99603.13;5066958;28;20037;-39
2022/04/09 01:15:42;;;;;;;3.00;0.90;;;;;;;1.53;63.11;99602.13;5055129;28;20088;-41
2022/04/09 01:18:09;;;;;;;2.70;1.10;;;;;;;1.50;63.29;99609.72;5048858;28;20110;-39
2022/04/09 01:20:38;;;;;;;2.90;0.85;;;;;;;1.48;64.58;99611.38;5049824;28;20056;-40
2022/04/09 01:23:07;;;;;;;2.00;0.90;;;;;;;1.46;64.64;99623.25;5067779;28;20053;-38
2022/04/09 01:25:34;;;;;;;3.17;1.42;;;;;;;1.46;64.88;99622.34;5069503;28;20539;-41
2022/04/09 01:28:02;;;;;;;2.88;1.45;;;;;;;1.44;63.75;99624.88;5066109;28;20040;-41
2022/04/09 01:30:29;;;;;;;4.47;1.65;;;;;;;1.43;64.53;99633.34;5064642;28;20044;-37
2022/04/09 01:32:56;;;;;;;2.70;1.40;;;;;;;1.40;64.52;99628.16;5062458;28;20045;-39
2022/04/09 01:35:22;;;;;;;2.65;1.30;;;;;;;1.39;64.37;99629.00;5081758;28;20644;-39
2022/04/09 01:37:49;;;;;;;6.10;1.98;;;;;;;1.36;64.65;99627.22;5068703;28;20717;-38
2022/04/09 01:40:16;;;;;;;5.35;1.85;;;;;;;1.35;63.83;99628.03;5066876;28;20044;-38
2022/04/09 01:42:44;;;;;;;3.50;1.17;;;;;;;1.33;65.20;99636.47;5066640;28;20053;-39
2022/04/09 01:45:13;;;;;;;2.72;1.15;;;;;;;1.33;65.07;99641.56;5067542;28;20040;-39
2022/04/09 01:47:42;;;;;;;2.70;1.58;;;;;;;1.29;65.28;99640.63;5065367;28;20671;-42
2022/04/09 01:50:12;;;;;;;4.20;1.02;;;;;;;1.30;65.50;99644.03;5066248;28;20072;-41
2022/04/09 01:52:40;;;;;;;3.05;1.45;;;;;;;1.27;65.52;99643.13;5062827;28;20055;-39
2022/04/09 01:55:09;;;;;;;7.45;2.10;;;;;;;1.26;65.24;99643.97;5064828;28;20098;-37
2022/04/09 01:57:37;;;;;;;3.05;1.30;;;;;;;1.25;64.40;99641.38;5065945;28;20052;-37
2022/04/09 02:00:09;;;;;;;3.33;1.58;;;;;;;1.23;65.40;99643.88;5062475;28;20074;-41
2022/04/09 02:02:39;;;;;;;2.70;1.27;;;;;;;1.20;64.83;99648.88;5066372;28;20041;-38
2022/04/09 02:05:07;;;;;;;4.22;1.67;;;;;;;1.17;65.33;99651.34;5065686;28;20044;-39
2022/04/09 02:07:36;;;;;;;3.20;1.50;;;;;;;1.15;65.08;99658.94;5065733;28;20430;-39
2022/04/09 02:10:08;;;;;;;2.53;1.63;;;;;;;1.12;65.26;99652.91;5067397;28;20162;-38
2022/04/09 02:12:39;;;;;;;4.38;1.25;;;;;;;1.10;64.27;99660.50;5067149;28;20083;-39
2022/04/09 02:15:10;;;;;;;2.92;1.25;;;;;;;1.09;65.62;99663.00;5065288;28;20072;-40
2022/04/09 02:17:38;;;;;;;4.13;1.35;;;;;;;1.01;65.38;99668.72;5064297;28;20138;-39
2022/04/09 02:20:09;;;;;;;4.82;0.98;;;;;;;1.01;65.43;99661.09;5047836;28;20051;-40
2022/04/09 02:22:53;;;;;;;4.72;1.20;;;;;;;0.95;66.52;99673.63;5066203;28;20043;-40
2022/04/09 02:25:20;;;;;;;2.00;0.80;;;;;;;0.92;66.78;99671.03;5063768;28;20103;-42
2022/04/09 02:27:47;;;;;;;2.60;1.38;;;;;;;0.93;65.59;99672.75;5064833;28;20044;-40
2022/04/09 02:30:15;;;;;;;2.42;1.15;;;;;;;0.93;65.86;99674.41;5064844;28;20377;-39
2022/04/09 02:32:51;;;;;;;2.78;1.15;;;;;;;0.92;65.98;99675.25;5063074;28;20373;-42
2022/04/09 02:35:20;;;;;;;4.97;1.85;;;;;;;0.90;66.54;99677.75;5051389;28;20490;-40
2022/04/09 02:37:46;;;;;;;2.17;0.93;;;;;;;0.86;67.26;99687.00;5050172;28;20059;-39
2022/04/09 02:40:15;;;;;;;1.33;0.60;;;;;;;0.85;68.87;99684.41;5065671;28;20041;-38
2022/04/09 02:42:42;;;;;;;3.55;1.00;;;;;;;0.86;69.23;99693.78;5060258;28;20756;-40
2022/04/09 02:45:12;;;;;;;2.33;1.30;;;;;;;0.91;68.77;99687.13;5065175;28;20101;-39
2022/04/09 02:47:41;;;;;;;2.60;1.17;;;;;;;0.88;69.48;99681.94;5065141;28;20052;-40
2022/04/09 02:50:10;;;;;;;2.25;0.98;;;;;;;0.93;69.90;99694.81;5067245;28;20490;-42
2022/04/09 02:52:54;;;;;;;1.90;1.38;;;;;;;0.94;69.70;99705.06;5065996;28;20131;-39
2022/04/09 02:55:21;;;;;;;2.42;0.43;;;;;;;0.94;70.75;99705.06;5060283;28;20087;-40
2022/04/09 02:57:48;;;;;;;4.82;1.10;;;;;;;0.96;70.40;99703.44;5064821;28;20049;-39
2022/04/09 03:00:19;;;;;;;2.92;0.75;;;;;;;0.96;71.58;99707.66;5063756;28;20048;-37
2022/04/09 03:02:48;;;;;;;5.10;1.25;;;;;;;0.98;70.82;99709.44;5063096;28;20520;-40
2022/04/09 03:05:15;;;;;;;3.13;1.10;;;;;;;0.98;70.44;99706.91;5067512;28;20044;-41
2022/04/09 03:07:42;;;;;;;1.75;0.80;;;;;;;0.96;70.20;99711.09;5065919;28;20102;-39
2022/04/09 03:10:10;;;;;;;2.92;1.33;;;;;;;0.97;70.01;99715.38;5065460;28;20048;-39
2022/04/09 03:12:43;;;;;;;4.50;1.30;;;;;;;0.98;68.73;99718.81;5063207;28;20111;-40
2022/04/09 03:15:12;;;;;;;2.58;1.52;;;;;;;0.94;68.95;99710.16;5064278;28;20048;-39
2022/04/09 03:17:40;;;;;;;2.35;1.05;;;;;;;0.91;68.68;99711.78;5060146;28;20052;-41
2022/04/09 03:20:09;;;;;;;1.88;0.90;;;;;;;0.89;68.67;99724.47;5065230;28;20044;-38
2022/04/09 03:22:37;;;;;;;4.68;0.80;;;;;;;0.83;68.94;99721.72;5065758;28;20048;-40
2022/04/09 03:25:05;;;;;;;3.17;1.15;;;;;;;0.81;69.40;99728.47;5061341;28;20105;-39
2022/04/09 03:27:34;;;;;;;2.35;1.35;;;;;;;0.79;70.31;99730.09;5058448;28;20045;-39
2022/04/09 03:30:01;;;;;;;2.83;1.25;;;;;;;0.80;69.51;99731.81;5066347;28;20055;-40
2022/04/09 03:32:28;;;;;;;6.03;1.38;;;;;;;0.77;68.98;99728.38;5060756;28;20542;-41
2022/04/09 03:34:55;;;;;;;4.93;1.40;;;;;;;0.79;69.43;99730.09;5066206;28;20044;-43
2022/04/09 03:37:21;;;;;;;2.92;1.23;;;;;;;0.79;69.90;99732.63;5066786;28;20048;-38
2022/04/09 03:39:49;;;;;;;3.83;1.00;;;;;;;0.79;69.37;99740.28;5060705;28;20048;-37
2022/04/09 03:42:16;;;;;;;2.72;0.90;;;;;;;0.77;69.12;99737.69;5065428;28;20047;-40
2022/04/09 03:44:45;;;;;;;5.00;1.25;;;;;;;0.76;68.27;99731.75;5063143;28;20118;-40
2022/04/09 03:47:12;;;;;;;3.53;0.80;;;;;;;0.74;68.33;99733.34;5064934;28;20087;-38
2022/04/09 03:49:39;;;;;;;5.40;0.85;;;;;;;0.75;68.28;99734.25;5066387;28;20048;-41
2022/04/09 03:52:06;;;;;;;5.95;1.27;;;;;;;0.73;68.40;99739.28;5062716;28;20086;-38
2022/04/09 03:54:37;;;;;;;4.97;1.10;;;;;;;0.73;68.84;99736.72;5057651;28;20185;-39
2022/04/09 03:57:04;;;;;;;5.30;0.85;;;;;;;0.72;69.08;99745.22;5061989;28;20048;-38
2022/04/09 03:59:30;;;;;;;2.50;0.88;;;;;;;0.69;69.00;99746.78;5066206;28;20052;-39
2022/04/09 04:01:57;;;;;;;3.42;0.82;;;;;;;0.68;68.80;99743.38;5063107;28;20541;-39
2022/04/09 04:04:24;;;;;;;2.75;1.25;;;;;;;0.68;68.99;99753.56;5064235;28;20152;-40
2022/04/09 04:06:51;;;;;;;4.28;0.73;;;;;;;0.67;69.56;99763.72;5066702;28;20053;-39
2022/04/09 04:09:17;;;;;;;2.83;1.10;;;;;;;0.64;69.16;99759.34;5067423;28;20107;-39
2022/04/09 04:11:44;;;;;;;4.72;1.55;;;;;;;0.65;69.34;99763.66;5068170;28;20048;-41
2022/04/09 04:14:12;;;;;;;10.43;1.42;;;;;;;0.65;69.18;99768.75;5066125;28;20048;-38
2022/04/09 04:16:38;;;;;;;5.60;1.80;;;;;;;0.64;68.87;99772.97;5064680;28;20078;-39
2022/04/09 04:19:05;;;;;;;2.75;0.98;;;;;;;0.62;70.45;99777.19;5066491;28;20102;-40
2022/04/09 04:21:34;;;;;;;3.78;0.70;;;;;;;0.64;69.92;99774.66;5053037;28;20049;-39
2022/04/09 04:24:02;;;;;;;4.07;0.98;;;;;;;0.66;69.25;99780.69;5069648;28;20450;-38
2022/04/09 04:26:28;;;;;;;3.33;1.00;;;;;;;0.65;69.28;99778.97;5064895;28;20099;-39
2022/04/09 04:28:55;;;;;;;2.80;0.98;;;;;;;0.64;69.60;99777.19;5068952;28;20354;-41
2022/04/09 04:31:23;;;;;;;2.40;0.90;;;;;;;0.65;69.30;99781.50;5068717;28;20102;-38
2022/04/09 04:33:49;;;;;;;3.42;1.20;;;;;;;0.62;69.53;99783.94;5065613;28;20045;-40
2022/04/09 04:36:16;;;;;;;4.53;1.52;;;;;;;0.62;69.12;99778.84;5068926;28;20575;-39
2022/04/09 04:38:43;;;;;;;1.23;0.68;;;;;;;0.61;69.90;99777.97;5060599;28;20045;-39
2022/04/09 04:41:10;;;;;;;1.85;0.85;;;;;;;0.61;69.19;99789.88;5068074;28;20063;-41
2022/04/09 04:43:37;;;;;;;5.22;0.63;;;;;;;0.61;69.58;99789.88;5067986;28;20122;-41
2022/04/09 04:46:03;;;;;;;3.60;0.50;;;;;;;0.60;68.88;99790.66;5069591;28;20064;-37
2022/04/09 04:48:33;;;;;;;1.45;0.90;;;;;;;0.59;68.85;99786.38;5066985;28;20132;-38
2022/04/09 04:51:02;;;;;;;2.20;0.82;;;;;;;0.59;68.69;99794.03;5067065;28;20119;-39
2022/04/09 04:53:28;;;;;;;2.53;1.27;;;;;;;0.59;69.00;99794.03;5063038;28;20045;-39
2022/04/09 04:55:55;;;;;;;11.02;1.42;;;;;;;0.58;69.02;99802.50;5066569;28;20057;-39
2022/04/09 04:58:21;;;;;;;7.65;1.08;;;;;;;0.58;68.80;99813.53;5064800;28;20052;-38
2022/04/09 05:00:50;;;;;;;4.88;1.02;;;;;;;0.57;69.24;99816.06;5067935;28;20137;-39
2022/04/09 05:03:17;;;;;;;5.90;0.70;;;;;;;0.56;69.70;99824.50;5068251;28;20083;-38
2022/04/09 05:05:44;;;;;;;1.50;0.50;;;;;;;0.54;70.48;99821.06;5065220;28;20604;-38
2022/04/09 05:08:11;;;;;;;2.85;0.40;;;;;;;0.54;70.36;99821.06;5069031;28;20121;-39
2022/04/09 05:10:38;;;;;;;3.50;0.85;;;;;;;0.55;70.06;99827.88;5069362;28;20490;-40
2022/04/09 05:13:05;;;;;;;4.53;0.85;;;;;;;0.54;69.02;99827.00;5068952;28;20056;-39
2022/04/09 05:15:32;;;;;;;1.73;0.50;;;;;;;0.51;69.78;99825.22;5064825;28;20066;-39
2022/04/09 05:18:01;;;;;;;3.97;0.77;;;;;;;0.50;69.22;99831.16;5069468;28;20053;-38
2022/04/09 05:20:28;;;;;;;1.80;0.88;;;;;;;0.50;69.76;99835.38;5064455;28;20094;-41
2022/04/09 05:22:54;;;;;;;4.63;1.08;;;;;;;0.50;69.68;99836.25;5069338;28;20045;-40
2022/04/09 05:25:21;;;;;;;3.70;0.88;;;;;;;0.49;69.55;99839.63;5059235;28;20090;-39
2022/04/09 05:27:49;;;;;;;2.88;0.95;;;;;;;0.48;69.06;99842.94;5066048;28;20408;-40
2022/04/09 05:30:18;;;;;;;4.22;0.82;;;;;;;0.49;69.69;99847.25;5060325;28;20139;-37
2022/04/09 05:32:45;;;;;;;3.00;0.95;;;;;;;0.49;69.36;99859.13;5063026;28;20488;-42
2022/04/09 05:35:13;;;;;;;2.13;0.50;;;;;;;0.49;69.91;99860.00;5066216;28;20044;-39
2022/04/09 05:37:45;;;;;;;3.95;0.77;;;;;;;0.48;70.32;99855.69;5069295;28;20060;-40
2022/04/09 05:40:15;;;;;;;2.35;1.17;;;;;;;0.48;70.13;99858.25;5065423;28;20040;-39
2022/04/09 05:43:00;;;;;;;4.93;1.17;;;;;;;0.49;69.28;99856.56;5067843;28;20533;-40
2022/04/09 05:45:27;;;;;;;4.50;0.80;;;;;;;0.48;69.50;99863.34;5067848;28;20053;-40
2022/04/09 05:47:56;;;;;;;2.60;0.85;;;;;;;0.51;69.63;99863.44;5063498;28;20052;-38
2022/04/09 05:50:23;;;;;;;2.13;0.82;;;;;;;0.54;69.19;99862.69;5066992;28;20531;-41
2022/04/09 05:52:50;;;;;;;2.50;0.82;;;;;;;0.56;69.97;99866.16;5061713;28;20091;-39
2022/04/09 05:55:17;;;;;;;3.33;1.75;;;;;;;0.59;69.65;99865.41;5056927;28;20048;-41
2022/04/09 05:57:45;;;;;;;3.15;1.33;;;;;;;0.62;70.00;99862.97;5055035;28;20128;-41
2022/04/09 06:00:18;;;;;;;2.35;1.00;;;;;;;0.63;70.11;99862.16;5063475;28;20098;-41
2022/04/09 06:02:49;;;;;;;3.92;0.52;;;;;;;0.67;69.48;99864.00;5059796;28;20048;-39
2022/04/09 06:05:16;;;;;;;6.88;0.85;;;;;;;0.72;69.78;99867.59;5060197;28;20045;-39
2022/04/09 06:07:42;;;;;;;3.60;1.05;;;;;;;0.76;69.86;99864.31;5061433;28;20102;-42
2022/04/09 06:10:12;;;;;;;8.63;4.55;;;;;;;0.83;69.40;99869.59;5066764;28;20385;-41
2022/04/09 06:12:41;;;;;;;6.80;1.98;;;;;;;0.88;70.01;99871.50;5066002;28;20076;-41
2022/04/09 06:15:10;;;;;;;9.77;3.05;;;;;;;0.96;70.32;99874.31;5061650;28;20044;-42
2022/04/09 06:17:40;;;;;;;5.97;2.78;;;;;;;1.02;70.09;99882.16;5063930;28;20052;-41
2022/04/09 06:20:09;;;;;;;5.03;2.33;;;;;;;1.10;69.10;99884.09;5065014;28;20052;-41
2022/04/09 06:22:37;;;;;;;6.43;2.70;;;;;;;1.19;69.48;99886.97;5066306;28;20708;-40
2022/04/09 06:25:06;;;;;;;4.47;2.50;;;;;;;1.28;68.95;99896.59;5067632;28;20374;-39
2022/04/09 06:27:39;;;;;;;14.73;5.40;;;;;;;1.37;68.87;99901.13;5063299;28;20131;-39
2022/04/09 06:30:09;;;;;;;10.52;3.08;;;;;;;1.43;69.99;99898.78;5067953;28;20045;-42
2022/04/09 06:32:54;;;;;;;4.22;1.63;;;;;;;1.51;69.44;99902.47;5064060;28;20059;-39
2022/04/09 06:35:24;;;;;;;2.45;1.30;;;;;;;1.58;69.26;99915.44;5067235;28;20048;-40
2022/04/09 06:37:51;;;;;;;3.40;1.05;;;;;;;1.65;68.59;99904.56;5060693;28;20040;-41
2022/04/09 06:40:18;;;;;;;10.55;1.08;;;;;;;1.70;68.98;99913.25;5065776;28;20701;-40
2022/04/09 06:42:45;;;;;;;3.42;0.75;;;;;;;1.77;69.30;99912.63;5065738;28;20070;-41
2022/04/09 06:45:14;;;;;;;4.47;0.60;;;;;;;1.83;68.79;99913.63;5064677;28;20052;-38
2022/04/09 06:47:42;;;;;;;3.97;0.55;;;;;;;1.90;69.43;99920.66;5065010;28;20041;-39
2022/04/09 06:50:12;;;;;;;2.70;0.73;;;;;;;1.95;68.61;99929.31;5066279;28;20052;-42
2022/04/09 06:52:39;;;;;;;2.35;1.02;;;;;;;2.01;68.97;99934.63;5063325;28;20058;-41
2022/04/09 06:55:10;;;;;;;2.78;0.95;;;;;;;2.05;69.43;99939.00;5066028;28;20048;-37
2022/04/09 06:57:39;;;;;;;3.45;1.00;;;;;;;2.09;69.00;99936.56;5068891;28;20079;-39
2022/04/09 07:00:12;;;;;;;4.93;0.50;;;;;;;2.14;68.70;99935.00;5061691;28;20037;-40
2022/04/09 07:02:56;;;;;;;3.90;0.68;;;;;;;2.22;69.35;99953.09;5060913;28;20051;-38
2022/04/09 07:05:23;;;;;;;3.55;0.85;;;;;;;2.43;69.30;99948.63;5052858;28;20090;-40
2022/04/09 07:07:50;;;;;;;3.72;0.95;;;;;;;3.19;68.95;99957.50;5052383;28;20052;-42
2022/04/09 07:10:16;;;;;;;0.77;0.25;;;;;;;4.05;68.18;99956.97;5052122;28;20562;-38
2022/04/09 07:12:43;;;;;;;2.80;1.23;;;;;;;4.93;66.83;99964.72;5051530;28;20271;-39
2022/04/09 07:15:12;;;;;;;4.70;0.52;;;;;;;5.78;65.36;99962.75;5059784;28;20045;-38
2022/04/09 07:17:41;;;;;;;6.72;0.98;;;;;;;6.56;63.80;99968.16;5066985;28;20074;-42
2022/04/09 07:20:11;;;;;;;4.18;0.70;;;;;;;7.25;61.83;99971.44;5066910;28;20044;-39
2022/04/09 07:22:40;;;;;;;6.80;1.02;;;;;;;7.88;60.26;99970.25;5065773;28;20048;-38
2022/04/09 07:25:09;;;;;;;4.13;0.85;;;;;;;8.41;59.10;99976.59;5066371;28;20044;-38
2022/04/09 07:27:41;;;;;;;3.38;0.90;;;;;;;8.97;58.30;99975.97;5063595;28;20135;-39
2022/04/09 07:30:16;;;;;;;4.90;1.70;;;;;;;9.44;56.57;99974.34;5067027;28;20377;-40
2022/04/09 07:32:45;;;;;;;1.63;0.70;;;;;;;9.77;54.94;99980.38;5064678;28;20134;-41
2022/04/09 07:35:16;;;;;;;4.95;1.05;;;;;;;10.21;52.68;99985.50;5065040;28;20346;-41
2022/04/09 07:37:49;;;;;;;3.40;1.02;;;;;;;10.64;53.30;99988.84;5065760;28;20064;-41
2022/04/09 07:40:20;;;;;;;2.83;1.08;;;;;;;10.96;51.27;99990.44;5045477;28;20053;-43
2022/04/09 07:42:50;;;;;;;4.20;1.27;;;;;;;11.32;51.23;99998.00;5060645;28;20106;-39
2022/04/09 07:45:18;;;;;;;3.65;0.80;;;;;;;11.73;50.90;100000.28;5070387;28;20048;-43
2022/04/09 07:48:02;;;;;;;2.67;1.17;;;;;;;12.18;49.51;100002.50;5057565;28;20055;-45
2022/04/09 07:50:29;;;;;;;4.55;1.15;;;;;;;12.44;49.46;100001.38;5060921;28;20036;-42
2022/04/09 07:52:56;;;;;;;4.57;0.63;;;;;;;12.85;47.96;100006.94;5069420;28;20556;-41
2022/04/09 07:55:23;;;;;;;4.38;1.58;;;;;;;13.08;47.75;100004.03;5066501;28;20103;-42
2022/04/09 07:57:51;;;;;;;2.88;0.80;;;;;;;13.56;47.53;99997.31;5068129;28;20051;-41
2022/04/09 08:00:31;;;;;;;6.45;1.00;;;;;;;13.93;47.03;100007.97;5069608;28;20037;-41
2022/04/09 08:02:58;;;;;;;5.57;0.85;;;;;;;14.30;46.30;100012.53;5061030;28;20048;-41
2022/04/09 08:05:25;;;;;;;2.33;0.80;;;;;;;14.64;45.67;100005.81;5069870;28;20044;-42
2022/04/09 08:07:52;;;;;;;2.53;1.08;;;;;;;14.81;43.87;100021.13;5069148;28;20142;-42
2022/04/09 08:10:19;;;;;;;4.60;1.23;;;;;;;14.85;42.67;100014.97;5069818;28;20484;-42
2022/04/09 08:12:49;;;;;;;2.97;0.93;;;;;;;14.84;42.42;100013.25;5066076;28;20051;-41
2022/04/09 08:15:18;;;;;;;1.60;0.82;;;;;;;14.83;42.73;100021.94;5065855;28;20127;-42
2022/04/09 08:17:48;;;;;;;7.05;1.15;;;;;;;14.84;41.89;100017.59;5067434;28;20174;-45
2022/04/09 08:20:21;;;;;;;3.83;0.77;;;;;;;15.12;41.95;100014.38;5048179;28;20044;-45
2022/04/09 08:22:49;;;;;;;4.22;0.73;;;;;;;15.06;40.98;100017.97;5068269;28;20068;-43
2022/04/09 08:25:18;;;;;;;2.67;0.57;;;;;;;15.18;41.36;100011.66;5069138;28;20591;-42
2022/04/09 08:28:02;;;;;;;4.22;0.75;;;;;;;15.18;40.63;100018.59;5055778;28;20182;-41
2022/04/09 08:30:29;;;;;;;2.65;0.65;;;;;;;15.35;40.64;100016.50;5068914;28;20575;-41
2022/04/09 08:32:57;;;;;;;4.85;0.85;;;;;;;15.20;39.71;100011.63;5066308;28;20101;-41
2022/04/09 08:35:24;;;;;;;6.38;1.38;;;;;;;15.29;40.65;100021.84;5069803;28;20442;-43
2022/04/09 08:37:53;;;;;;;3.85;0.98;;;;;;;15.34;39.51;100016.53;5068257;28;20055;-43
2022/04/09 08:40:21;;;;;;;1.45;0.80;;;;;;;14.94;38.25;100024.34;5066328;28;20101;-42
2022/04/09 08:42:49;;;;;;;4.60;0.82;;;;;;;15.10;39.50;100035.28;5062752;28;20499;-41
2022/04/09 08:45:17;;;;;;;2.40;0.50;;;;;;;14.96;38.18;100040.78;5067835;28;20048;-43
2022/04/09 08:47:44;;;;;;;4.68;1.55;;;;;;;15.12;39.70;100046.56;5063011;28;20076;-43
2022/04/09 08:50:15;;;;;;;2.42;1.38;;;;;;;15.20;38.93;100050.75;5069611;28;20074;-42
2022/04/09 08:52:45;;;;;;;1.92;0.68;;;;;;;15.22;38.68;100043.72;5061251;28;20052;-44
2022/04/09 08:55:13;;;;;;;1.65;0.98;;;;;;;15.22;38.24;100048.94;5062828;28;20048;-43
2022/04/09 08:57:42;;;;;;;4.50;1.45;;;;;;;15.23;37.76;100050.69;5067371;28;20048;-44
2022/04/09 09:00:17;;;;;;;1.98;0.68;;;;;;;14.90;37.88;100051.38;5068165;28;20102;-42
2022/04/09 09:02:54;;;;;;;2.83;1.08;;;;;;;14.92;37.52;100060.00;5065619;28;20054;-43
2022/04/09 09:08:16;;;;;;;5.10;0.90;;;;;;;14.87;38.17;100065.34;5047657;28;20397;-47
2022/04/09 09:10:44;;;;;;;2.72;1.02;;;;;;;15.18;38.64;100069.03;5007852;28;20621;-45
2022/04/09 09:13:13;;;;;;;3.97;0.93;;;;;;;15.14;38.35;100068.22;4997786;28;20057;-44
2022/04/09 09:18:23;;;;;;;6.93;1.27;;;;;;;14.20;38.21;100063.94;5044804;28;20402;-42
2022/04/09 09:21:16;;;;;;;5.72;1.25;;;;;;;14.30;38.64;100061.16;5008647;28;20806;-42
2022/04/09 09:23:43;;;;;;;3.45;0.63;;;;;;;14.36;38.66;100074.94;5018995;28;20105;-47
2022/04/09 09:26:18;;;;;;;1.73;0.80;;;;;;;14.37;39.27;100076.69;5024686;28;20049;-46
2022/04/09 09:28:55;;;;;;;8.55;2.03;;;;;;;14.17;40.14;100081.34;5012176;28;20362;-45
2022/04/09 09:59:07;;;;;;;4.03;2.67;;;;;;;14.96;36.23;100089.50;5025893;28;20629;-46
2022/04/09 11:58:19;;;;;;;4.53;1.40;;;;;;;11.23;41.89;100143.22;5000619;28;20160;-48
2022/04/09 12:32:15;;;;;;;2.38;0.90;;;;;;;11.31;43.45;100157.91;4970662;28;20129;-48
2022/04/09 12:35:03;;;;;;;2.78;1.35;;;;;;;11.51;42.69;100169.91;4997509;28;20054;-52
2022/04/09 12:49:08;;;;;;;3.83;1.33;;;;;;;12.01;42.93;100159.25;5009704;28;20044;-46
2022/04/09 12:51:38;;;;;;;2.53;1.27;;;;;;;12.19;41.66;100163.47;5008677;28;20224;-46
2022/04/09 12:54:05;;;;;;;3.47;1.85;;;;;;;12.28;42.79;100157.34;5005926;28;20521;-43
2022/04/09 12:56:37;;;;;;;3.40;1.40;;;;;;;12.39;42.02;100165.06;5007102;28;20084;-46
2022/04/09 12:59:04;;;;;;;10.50;1.63;;;;;;;12.47;41.85;100158.03;5008059;28;20061;-47
2022/04/09 13:01:33;;;;;;;5.35;2.22;;;;;;;12.62;42.60;100153.59;5004852;28;20100;-50
2022/04/09 13:04:00;;;;;;;5.10;1.75;;;;;;;12.84;42.00;100151.63;5007284;28;20081;-46
2022/04/09 13:06:28;;;;;;;5.43;1.58;;;;;;;13.09;41.64;100161.78;5010214;28;20519;-48
2022/04/09 13:08:54;;;;;;;8.20;2.08;;;;;;;13.14;42.36;100160.88;5007453;28;20050;-45
2022/04/09 13:11:21;;;;;;;2.97;1.52;;;;;;;12.81;41.68;100166.41;5007131;28;20128;-46
2022/04/09 13:13:48;;;;;;;3.70;1.63;;;;;;;12.07;42.49;100164.44;5010904;28;20119;-46
2022/04/09 13:16:14;;;;;;;1.95;1.25;;;;;;;11.54;44.92;100169.91;5004933;28;20045;-43
2022/04/09 13:18:42;;;;;;;3.03;0.77;;;;;;;11.03;45.19;100167.50;5015990;28;20057;-47
2022/04/09 13:21:09;;;;;;;2.15;1.30;;;;;;;10.79;45.87;100166.69;5010551;28;20544;-46
2022/04/09 13:23:54;;;;;;;5.80;1.38;;;;;;;10.62;46.98;100166.72;5005070;28;20536;-42
2022/04/09 13:26:21;;;;;;;3.22;1.20;;;;;;;10.70;47.82;100170.16;5007541;28;20054;-44
2022/04/09 13:28:49;;;;;;;4.68;1.35;;;;;;;10.83;47.32;100159.75;5000411;28;20062;-47
2022/04/09 13:31:16;;;;;;;2.45;1.30;;;;;;;10.86;46.90;100164.94;4994030;28;20236;-43
2022/04/09 13:33:43;;;;;;;3.58;1.60;;;;;;;10.88;46.70;100174.44;5004622;28;20133;-44
2022/04/09 13:36:10;;;;;;;2.47;1.08;;;;;;;10.90;45.54;100169.25;5003788;28;20108;-46
2022/04/09 13:38:38;;;;;;;2.28;1.10;;;;;;;11.08;46.65;100162.31;5000852;28;20056;-44
2022/04/09 13:41:26;;;;;;;3.63;1.63;;;;;;;11.26;45.92;100170.03;5006725;28;20048;-44
2022/04/09 13:43:54;;;;;;;2.30;1.25;;;;;;;11.28;46.12;100173.47;5004541;28;20142;-43
2022/04/09 13:46:20;;;;;;;2.70;0.90;;;;;;;11.22;45.81;100170.91;5006596;28;20046;-44
2022/04/09 13:48:47;;;;;;;2.22;0.93;;;;;;;11.09;45.52;100179.56;5006902;28;20140;-44
2022/04/09 13:51:14;;;;;;;4.47;1.33;;;;;;;11.07;44.92;100173.56;4998208;28;20054;-45
2022/04/09 13:53:41;;;;;;;3.45;1.05;;;;;;;10.90;44.75;100166.66;5002475;28;20112;-45
2022/04/09 13:56:08;;;;;;;4.10;1.88;;;;;;;11.07;45.19;100168.38;5002439;28;20096;-45
2022/04/09 13:58:35;;;;;;;3.13;1.30;;;;;;;11.22;45.53;100167.44;5000077;28;20099;-44
2022/04/09 14:01:03;;;;;;;6.30;1.55;;;;;;;11.29;45.06;100159.63;5019161;28;20054;-43
2022/04/09 14:03:30;;;;;;;4.35;1.25;;;;;;;11.51;45.71;100175.09;5008747;28;20056;-46
2022/04/09 14:05:59;;;;;;;2.78;1.58;;;;;;;11.46;44.21;100165.63;5005224;28;20458;-43
2022/04/09 14:08:27;;;;;;;3.53;1.50;;;;;;;11.35;44.11;100178.63;5008108;28;20054;-43
2022/04/09 14:10:53;;;;;;;2.97;1.58;;;;;;;11.10;46.08;100178.69;5008712;28;20143;-42
2022/04/09 14:13:21;;;;;;;5.13;1.63;;;;;;;10.64;46.89;100178.78;5003743;28;20057;-45
2022/04/09 14:15:48;;;;;;;5.32;1.15;;;;;;;10.39;47.05;100175.31;5010966;28;20061;-43
2022/04/09 14:18:16;;;;;;;2.55;1.35;;;;;;;10.16;47.80;100174.44;5006855;28;20051;-44
2022/04/09 14:20:43;;;;;;;5.70;1.55;;;;;;;10.10;48.76;100163.22;5005863;28;20057;-46
2022/04/09 14:23:10;;;;;;;2.08;1.25;;;;;;;10.23;48.02;100162.38;5003338;28;20116;-41
2022/04/09 14:25:37;;;;;;;4.45;1.13;;;;;;;10.32;47.42;100168.41;5009142;28;20050;-41
2022/04/09 14:28:06;;;;;;;1.52;0.85;;;;;;;10.38;48.51;100163.25;5013521;28;20065;-44
2022/04/09 14:30:32;;;;;;;3.53;1.42;;;;;;;10.49;47.37;100158.97;5005525;28;20080;-47
2022/04/09 14:33:00;;;;;;;3.30;0.80;;;;;;;10.65;47.20;100156.34;5002014;28;20042;-45
2022/04/09 14:35:27;;;;;;;3.97;1.13;;;;;;;10.80;46.78;100151.13;5008783;28;20056;-44
2022/04/09 14:37:54;;;;;;;2.47;0.93;;;;;;;10.65;45.90;100156.34;5010866;28;20050;-43
2022/04/09 14:40:21;;;;;;;5.13;1.02;;;;;;;10.75;46.23;100158.06;5014494;28;20058;-45
2022/04/09 14:42:49;;;;;;;3.35;1.15;;;;;;;10.74;45.13;100156.31;5009997;28;20065;-44
2022/04/09 14:45:15;;;;;;;2.70;1.42;;;;;;;10.79;44.85;100157.19;5008995;28;20148;-46
2022/04/09 14:47:42;;;;;;;2.72;0.95;;;;;;;10.70;44.35;100149.41;5010247;28;20077;-44
2022/04/09 14:50:11;;;;;;;2.72;1.05;;;;;;;10.73;45.34;100159.78;5009447;28;20045;-43
2022/04/09 14:52:41;;;;;;;;;;;;;;;10.69;45.72;100163.25;5006946;28;20049;-43
2022/04/09 14:55:10;;;;;;;1.00;0.77;;;;;;;10.80;45.30;100158.91;5007990;28;19921;-45
2022/04/09 14:57:39;;;;;;;1.20;0.80;;;;;;;10.76;44.84;100172.75;5010666;28;20052;-46
2022/04/09 15:00:13;;;;;;;2.40;0.70;;;;;;;10.77;45.17;100171.88;4996462;28;20054;-47